Cleveland, Ohio
Traffic Map
Current Weather Conditions
Cleveland, Ohio
Overcast
Overcast
33°
Feels Like: 29°
Wind Chill: 29° Ceiling: 2400
Heat Index: 33° Visibility: 10mi
Dew Point: 22° Wind: 5mph
Humidity: 64% Direction: 140° (SE)
Pressure: 30.09in Gusts: 0mph
Raw Report DataKBKL 120953Z 14004KT 10SM OVC024 01/M06 A3009 RMK AO2 SLP195 T00061056
Traffic Incident Summary
Active as of:
Severity:
Category:
InformationThere was an issue retrieving the traffic information for this location. Please try a different location or try again shortly.
Advertisements